map of MHD home
MHD - Airport
Location
City:  Mashhad, Khorasan-e Razavi, Iran
Name:Mashhad International Airport
Old (Alt.):Shahid Hashemi Nejad
ICAO:OIMM
IATA:MHD

Details
Type:Airport (Aerodrome, Airfield)
Use:Public/Civil, Military, International (customs port of entry)
Latitude:3614'07"N (36.235195)
Longitude:5938'27"E (59.640972)
Datum:WGS 1984
Elevation:3263 ft (995 m)
Variation:4.38E (WMM2015 magnetic declination)
0.06 annual change
Runways:2
Longest:12877 × 148 ft (3925 × 45 m), paved

Time
Time Zone:UTC+3:30 (DST+4:30)
Local Time:

Weather
METAR:OIMM 220200Z 00000KT 9999 FEW040 13/02 Q1020 A3015
TAF:OIMM 212300Z 2200/2306 29004MPS 8000 FEW040

Related Locations
Nearby:
Farthest:IPC: 11541 mi / 18574 km
Easter Island (Isla de Pascua, Rapa Nui) [Mataveri Intl], VS, CL

Find:

   beyond  
but within

Other Information
Maps:
NOTAMs:
Links:
Sources:

  
  • flag of Iran
  

Sectional Chart

Flight Planning
at skyvector.com

Satellite Image

Google Maps Satellite view

 

Copyright © 2004-2018 Karl L. Swartz. All rights reserved.
The Great Circle Mapper name and logo are trademarks of the Great Circle Mapper.
All other trademarks mentioned herein belong to their respective owners.
Please see credits for attibutions and further copyright information.

  Follow gcmap on Facebook Follow gcmap on Twitter Follow gcmap on Google+ GCmap on LinkedIn

hCard Microformat

Geo Microformat